sensor_id;sensor_type;location;lat;lon;timestamp;P1;durP1;ratioP1;P2;durP2;ratioP2
31770;SDS011;18343;50.152;8.182;2022-09-29T00:01:32;6.72;;;2.60;;
31770;SDS011;18343;50.152;8.182;2022-09-29T00:03:58;3.83;;;2.40;;
31770;SDS011;18343;50.152;8.182;2022-09-29T00:06:25;10.00;;;2.50;;
31770;SDS011;18343;50.152;8.182;2022-09-29T00:08:51;3.92;;;2.38;;
31770;SDS011;18343;50.152;8.182;2022-09-29T00:11:18;3.00;;;2.10;;
31770;SDS011;18343;50.152;8.182;2022-09-29T00:13:45;5.00;;;2.00;;
31770;SDS011;18343;50.152;8.182;2022-09-29T00:16:13;4.57;;;2.00;;
31770;SDS011;18343;50.152;8.182;2022-09-29T00:18:39;4.93;;;2.05;;
31770;SDS011;18343;50.152;8.182;2022-09-29T00:21:07;5.65;;;2.50;;
31770;SDS011;18343;50.152;8.182;2022-09-29T00:23:35;4.72;;;2.10;;
31770;SDS011;18343;50.152;8.182;2022-09-29T00:26:04;3.20;;;2.25;;
31770;SDS011;18343;50.152;8.182;2022-09-29T00:28:33;3.03;;;1.77;;
31770;SDS011;18343;50.152;8.182;2022-09-29T00:31:01;7.38;;;1.88;;
31770;SDS011;18343;50.152;8.182;2022-09-29T00:33:29;3.20;;;2.17;;
31770;SDS011;18343;50.152;8.182;2022-09-29T00:36:00;5.05;;;3.00;;
31770;SDS011;18343;50.152;8.182;2022-09-29T00:38:29;2.40;;;2.10;;
31770;SDS011;18343;50.152;8.182;2022-09-29T00:40:56;4.68;;;2.75;;
31770;SDS011;18343;50.152;8.182;2022-09-29T00:43:23;4.57;;;2.42;;
31770;SDS011;18343;50.152;8.182;2022-09-29T00:46:16;3.50;;;2.10;;
31770;SDS011;18343;50.152;8.182;2022-09-29T00:48:47;7.88;;;2.40;;
31770;SDS011;18343;50.152;8.182;2022-09-29T00:51:15;3.90;;;2.15;;
31770;SDS011;18343;50.152;8.182;2022-09-29T00:53:43;3.63;;;1.95;;
31770;SDS011;18343;50.152;8.182;2022-09-29T00:56:11;10.90;;;2.83;;
31770;SDS011;18343;50.152;8.182;2022-09-29T00:58:41;4.88;;;2.08;;
31770;SDS011;18343;50.152;8.182;2022-09-29T01:01:19;1.70;;;1.42;;
31770;SDS011;18343;50.152;8.182;2022-09-29T01:03:46;3.67;;;1.80;;
31770;SDS011;18343;50.152;8.182;2022-09-29T01:06:18;2.65;;;2.00;;
31770;SDS011;18343;50.152;8.182;2022-09-29T01:08:51;4.28;;;1.80;;
31770;SDS011;18343;50.152;8.182;2022-09-29T01:11:23;3.40;;;1.63;;
31770;SDS011;18343;50.152;8.182;2022-09-29T01:13:50;6.60;;;2.15;;
31770;SDS011;18343;50.152;8.182;2022-09-29T01:16:19;2.50;;;1.55;;
31770;SDS011;18343;50.152;8.182;2022-09-29T01:18:46;8.75;;;2.22;;
31770;SDS011;18343;50.152;8.182;2022-09-29T01:21:15;3.63;;;1.63;;
31770;SDS011;18343;50.152;8.182;2022-09-29T01:23:57;5.40;;;1.67;;
31770;SDS011;18343;50.152;8.182;2022-09-29T01:29:51;2.17;;;1.33;;
31770;SDS011;18343;50.152;8.182;2022-09-29T01:32:36;3.42;;;2.10;;
31770;SDS011;18343;50.152;8.182;2022-09-29T01:35:28;3.38;;;2.15;;
31770;SDS011;18343;50.152;8.182;2022-09-29T01:38:07;4.15;;;2.20;;
31770;SDS011;18343;50.152;8.182;2022-09-29T01:40:53;2.95;;;1.85;;
31770;SDS011;18343;50.152;8.182;2022-09-29T01:43:29;5.05;;;2.10;;
31770;SDS011;18343;50.152;8.182;2022-09-29T01:46:00;5.13;;;2.00;;
31770;SDS011;18343;50.152;8.182;2022-09-29T01:48:32;2.67;;;1.83;;
31770;SDS011;18343;50.152;8.182;2022-09-29T01:51:03;2.97;;;1.80;;
31770;SDS011;18343;50.152;8.182;2022-09-29T01:53:37;6.65;;;2.17;;
31770;SDS011;18343;50.152;8.182;2022-09-29T01:56:10;3.70;;;2.25;;
31770;SDS011;18343;50.152;8.182;2022-09-29T01:58:44;2.35;;;1.63;;
31770;SDS011;18343;50.152;8.182;2022-09-29T02:01:18;6.50;;;1.75;;
31770;SDS011;18343;50.152;8.182;2022-09-29T02:03:51;3.08;;;1.40;;
31770;SDS011;18343;50.152;8.182;2022-09-29T02:06:24;2.53;;;1.67;;
31770;SDS011;18343;50.152;8.182;2022-09-29T02:08:57;1.98;;;1.45;;
31770;SDS011;18343;50.152;8.182;2022-09-29T02:11:26;3.47;;;1.90;;
31770;SDS011;18343;50.152;8.182;2022-09-29T02:13:58;4.60;;;1.70;;
31770;SDS011;18343;50.152;8.182;2022-09-29T02:16:31;5.47;;;2.17;;
31770;SDS011;18343;50.152;8.182;2022-09-29T02:19:07;3.05;;;1.80;;
31770;SDS011;18343;50.152;8.182;2022-09-29T02:21:41;4.22;;;1.63;;
31770;SDS011;18343;50.152;8.182;2022-09-29T02:24:08;2.20;;;1.70;;
31770;SDS011;18343;50.152;8.182;2022-09-29T02:26:35;1.80;;;1.50;;
31770;SDS011;18343;50.152;8.182;2022-09-29T02:29:02;2.45;;;1.65;;
31770;SDS011;18343;50.152;8.182;2022-09-29T02:31:31;1.92;;;1.60;;
31770;SDS011;18343;50.152;8.182;2022-09-29T02:33:58;2.67;;;1.30;;
31770;SDS011;18343;50.152;8.182;2022-09-29T02:36:28;4.45;;;1.35;;
31770;SDS011;18343;50.152;8.182;2022-09-29T02:39:07;2.65;;;1.40;;
31770;SDS011;18343;50.152;8.182;2022-09-29T02:42:14;2.60;;;1.23;;
31770;SDS011;18343;50.152;8.182;2022-09-29T02:44:53;3.10;;;1.58;;
31770;SDS011;18343;50.152;8.182;2022-09-29T02:47:43;2.65;;;1.90;;
31770;SDS011;18343;50.152;8.182;2022-09-29T02:50:34;4.03;;;1.65;;
31770;SDS011;18343;50.152;8.182;2022-09-29T02:53:15;2.15;;;1.50;;
31770;SDS011;18343;50.152;8.182;2022-09-29T02:55:55;2.00;;;1.55;;
31770;SDS011;18343;50.152;8.182;2022-09-29T02:58:31;2.00;;;1.35;;
31770;SDS011;18343;50.152;8.182;2022-09-29T03:01:04;2.85;;;1.52;;
31770;SDS011;18343;50.152;8.182;2022-09-29T03:03:31;5.45;;;1.60;;
31770;SDS011;18343;50.152;8.182;2022-09-29T03:05:58;2.50;;;1.27;;
31770;SDS011;18343;50.152;8.182;2022-09-29T03:08:25;1.30;;;1.20;;
31770;SDS011;18343;50.152;8.182;2022-09-29T03:10:51;4.60;;;1.40;;
31770;SDS011;18343;50.152;8.182;2022-09-29T03:13:18;5.10;;;1.27;;
31770;SDS011;18343;50.152;8.182;2022-09-29T03:15:45;3.72;;;1.50;;
31770;SDS011;18343;50.152;8.182;2022-09-29T03:18:11;2.20;;;1.90;;
31770;SDS011;18343;50.152;8.182;2022-09-29T03:20:38;9.75;;;2.55;;
31770;SDS011;18343;50.152;8.182;2022-09-29T03:23:05;4.20;;;2.10;;
31770;SDS011;18343;50.152;8.182;2022-09-29T03:25:31;6.43;;;2.03;;
31770;SDS011;18343;50.152;8.182;2022-09-29T03:27:58;6.18;;;2.45;;
31770;SDS011;18343;50.152;8.182;2022-09-29T03:30:24;3.38;;;2.40;;
31770;SDS011;18343;50.152;8.182;2022-09-29T03:32:52;3.58;;;2.30;;
31770;SDS011;18343;50.152;8.182;2022-09-29T03:35:18;5.40;;;1.75;;
31770;SDS011;18343;50.152;8.182;2022-09-29T03:37:45;4.28;;;2.47;;
31770;SDS011;18343;50.152;8.182;2022-09-29T03:40:11;3.85;;;2.70;;
31770;SDS011;18343;50.152;8.182;2022-09-29T03:42:38;4.93;;;2.50;;
31770;SDS011;18343;50.152;8.182;2022-09-29T03:45:05;3.17;;;2.30;;
31770;SDS011;18343;50.152;8.182;2022-09-29T03:47:33;2.80;;;2.20;;
31770;SDS011;18343;50.152;8.182;2022-09-29T03:50:00;3.25;;;2.17;;
31770;SDS011;18343;50.152;8.182;2022-09-29T03:52:27;3.58;;;2.50;;
31770;SDS011;18343;50.152;8.182;2022-09-29T03:54:54;3.85;;;2.55;;
31770;SDS011;18343;50.152;8.182;2022-09-29T03:57:20;5.20;;;3.33;;
31770;SDS011;18343;50.152;8.182;2022-09-29T03:59:46;6.75;;;3.85;;
31770;SDS011;18343;50.152;8.182;2022-09-29T04:02:13;5.25;;;3.30;;
31770;SDS011;18343;50.152;8.182;2022-09-29T04:04:42;6.07;;;2.65;;
31770;SDS011;18343;50.152;8.182;2022-09-29T04:07:09;5.13;;;2.75;;
31770;SDS011;18343;50.152;8.182;2022-09-29T04:09:36;5.95;;;2.47;;
31770;SDS011;18343;50.152;8.182;2022-09-29T04:12:03;2.45;;;2.00;;
31770;SDS011;18343;50.152;8.182;2022-09-29T04:14:30;2.53;;;2.20;;
31770;SDS011;18343;50.152;8.182;2022-09-29T04:16:56;3.95;;;1.95;;
31770;SDS011;18343;50.152;8.182;2022-09-29T04:19:23;1.90;;;1.70;;
31770;SDS011;18343;50.152;8.182;2022-09-29T04:21:49;5.65;;;2.08;;
31770;SDS011;18343;50.152;8.182;2022-09-29T04:24:16;4.25;;;2.35;;
31770;SDS011;18343;50.152;8.182;2022-09-29T04:26:43;3.97;;;2.05;;
31770;SDS011;18343;50.152;8.182;2022-09-29T04:29:09;2.20;;;1.88;;
31770;SDS011;18343;50.152;8.182;2022-09-29T04:31:36;6.38;;;2.22;;
31770;SDS011;18343;50.152;8.182;2022-09-29T04:34:02;2.95;;;1.98;;
31770;SDS011;18343;50.152;8.182;2022-09-29T04:36:28;4.63;;;3.08;;
31770;SDS011;18343;50.152;8.182;2022-09-29T04:38:55;3.35;;;2.00;;
31770;SDS011;18343;50.152;8.182;2022-09-29T04:41:22;3.67;;;2.08;;
31770;SDS011;18343;50.152;8.182;2022-09-29T04:43:49;4.90;;;2.10;;
31770;SDS011;18343;50.152;8.182;2022-09-29T04:46:15;3.30;;;2.30;;
31770;SDS011;18343;50.152;8.182;2022-09-29T04:48:42;2.70;;;2.00;;
31770;SDS011;18343;50.152;8.182;2022-09-29T04:51:08;3.00;;;2.30;;
31770;SDS011;18343;50.152;8.182;2022-09-29T04:53:35;4.65;;;2.30;;
31770;SDS011;18343;50.152;8.182;2022-09-29T04:56:05;3.47;;;2.08;;
31770;SDS011;18343;50.152;8.182;2022-09-29T04:58:34;5.20;;;2.25;;
31770;SDS011;18343;50.152;8.182;2022-09-29T05:01:10;3.60;;;1.75;;
31770;SDS011;18343;50.152;8.182;2022-09-29T05:03:37;3.15;;;2.08;;
31770;SDS011;18343;50.152;8.182;2022-09-29T05:06:05;2.78;;;1.90;;
31770;SDS011;18343;50.152;8.182;2022-09-29T05:08:33;3.88;;;2.08;;
31770;SDS011;18343;50.152;8.182;2022-09-29T05:11:02;6.45;;;2.35;;
31770;SDS011;18343;50.152;8.182;2022-09-29T05:13:29;2.75;;;1.95;;
31770;SDS011;18343;50.152;8.182;2022-09-29T05:15:57;4.07;;;2.10;;
31770;SDS011;18343;50.152;8.182;2022-09-29T05:18:23;2.60;;;1.85;;
31770;SDS011;18343;50.152;8.182;2022-09-29T05:20:50;4.30;;;2.53;;
31770;SDS011;18343;50.152;8.182;2022-09-29T05:23:17;4.05;;;2.70;;
31770;SDS011;18343;50.152;8.182;2022-09-29T05:25:44;3.97;;;2.63;;
31770;SDS011;18343;50.152;8.182;2022-09-29T05:28:11;2.60;;;2.20;;
31770;SDS011;18343;50.152;8.182;2022-09-29T05:30:39;2.65;;;1.88;;
31770;SDS011;18343;50.152;8.182;2022-09-29T05:33:07;4.82;;;2.53;;
31770;SDS011;18343;50.152;8.182;2022-09-29T05:35:34;5.57;;;2.38;;
31770;SDS011;18343;50.152;8.182;2022-09-29T05:38:00;5.03;;;2.10;;
31770;SDS011;18343;50.152;8.182;2022-09-29T05:40:27;3.95;;;1.98;;
31770;SDS011;18343;50.152;8.182;2022-09-29T05:42:53;3.15;;;2.28;;
31770;SDS011;18343;50.152;8.182;2022-09-29T05:45:20;5.15;;;2.45;;
31770;SDS011;18343;50.152;8.182;2022-09-29T05:47:46;2.40;;;1.90;;
31770;SDS011;18343;50.152;8.182;2022-09-29T05:50:14;2.75;;;1.83;;
31770;SDS011;18343;50.152;8.182;2022-09-29T05:52:40;4.53;;;1.92;;
31770;SDS011;18343;50.152;8.182;2022-09-29T05:55:25;3.40;;;1.92;;
31770;SDS011;18343;50.152;8.182;2022-09-29T05:57:52;4.47;;;2.28;;
31770;SDS011;18343;50.152;8.182;2022-09-29T06:00:18;3.60;;;2.40;;
31770;SDS011;18343;50.152;8.182;2022-09-29T06:02:45;5.80;;;2.72;;
31770;SDS011;18343;50.152;8.182;2022-09-29T06:05:12;10.63;;;3.15;;
31770;SDS011;18343;50.152;8.182;2022-09-29T06:07:39;6.15;;;2.88;;
31770;SDS011;18343;50.152;8.182;2022-09-29T06:10:06;4.22;;;2.90;;
31770;SDS011;18343;50.152;8.182;2022-09-29T06:12:34;8.43;;;3.08;;
31770;SDS011;18343;50.152;8.182;2022-09-29T06:15:01;5.13;;;2.67;;
31770;SDS011;18343;50.152;8.182;2022-09-29T06:17:29;8.57;;;3.13;;
31770;SDS011;18343;50.152;8.182;2022-09-29T06:19:55;6.57;;;3.95;;
31770;SDS011;18343;50.152;8.182;2022-09-29T06:22:22;6.47;;;4.18;;
31770;SDS011;18343;50.152;8.182;2022-09-29T06:24:49;7.43;;;4.22;;
31770;SDS011;18343;50.152;8.182;2022-09-29T06:27:16;7.28;;;4.75;;
31770;SDS011;18343;50.152;8.182;2022-09-29T06:29:42;9.25;;;4.45;;
31770;SDS011;18343;50.152;8.182;2022-09-29T06:32:09;9.60;;;5.32;;
31770;SDS011;18343;50.152;8.182;2022-09-29T06:34:36;7.55;;;5.13;;
31770;SDS011;18343;50.152;8.182;2022-09-29T06:37:22;6.85;;;4.85;;
31770;SDS011;18343;50.152;8.182;2022-09-29T06:40:00;14.30;;;5.18;;
31770;SDS011;18343;50.152;8.182;2022-09-29T06:42:27;9.18;;;5.80;;
31770;SDS011;18343;50.152;8.182;2022-09-29T06:44:53;8.57;;;5.78;;
31770;SDS011;18343;50.152;8.182;2022-09-29T06:47:20;9.20;;;5.88;;
31770;SDS011;18343;50.152;8.182;2022-09-29T06:49:47;10.05;;;5.68;;
31770;SDS011;18343;50.152;8.182;2022-09-29T06:52:14;8.15;;;5.80;;
31770;SDS011;18343;50.152;8.182;2022-09-29T06:54:41;11.07;;;6.13;;
31770;SDS011;18343;50.152;8.182;2022-09-29T06:57:09;9.68;;;5.15;;
31770;SDS011;18343;50.152;8.182;2022-09-29T06:59:36;10.07;;;5.90;;
31770;SDS011;18343;50.152;8.182;2022-09-29T07:02:02;9.27;;;6.07;;
31770;SDS011;18343;50.152;8.182;2022-09-29T07:04:29;9.10;;;5.30;;
31770;SDS011;18343;50.152;8.182;2022-09-29T07:06:55;9.40;;;4.95;;
31770;SDS011;18343;50.152;8.182;2022-09-29T07:09:22;7.82;;;5.40;;
31770;SDS011;18343;50.152;8.182;2022-09-29T07:11:49;9.07;;;5.60;;
31770;SDS011;18343;50.152;8.182;2022-09-29T07:14:17;10.25;;;5.20;;
31770;SDS011;18343;50.152;8.182;2022-09-29T07:16:46;11.98;;;6.00;;
31770;SDS011;18343;50.152;8.182;2022-09-29T07:19:14;8.27;;;5.75;;
31770;SDS011;18343;50.152;8.182;2022-09-29T07:21:42;8.23;;;5.93;;
31770;SDS011;18343;50.152;8.182;2022-09-29T07:24:08;9.57;;;6.05;;
31770;SDS011;18343;50.152;8.182;2022-09-29T07:26:35;10.43;;;5.82;;
31770;SDS011;18343;50.152;8.182;2022-09-29T07:29:02;8.05;;;5.30;;
31770;SDS011;18343;50.152;8.182;2022-09-29T07:31:29;6.95;;;5.47;;
31770;SDS011;18343;50.152;8.182;2022-09-29T07:33:56;6.60;;;5.30;;
31770;SDS011;18343;50.152;8.182;2022-09-29T07:36:22;7.13;;;5.07;;
31770;SDS011;18343;50.152;8.182;2022-09-29T07:38:50;6.93;;;5.03;;
31770;SDS011;18343;50.152;8.182;2022-09-29T07:41:17;6.43;;;4.88;;
31770;SDS011;18343;50.152;8.182;2022-09-29T07:43:46;7.20;;;4.85;;
31770;SDS011;18343;50.152;8.182;2022-09-29T07:46:12;11.35;;;5.10;;
31770;SDS011;18343;50.152;8.182;2022-09-29T07:48:40;9.93;;;5.20;;
31770;SDS011;18343;50.152;8.182;2022-09-29T07:51:08;12.32;;;5.03;;
31770;SDS011;18343;50.152;8.182;2022-09-29T07:53:36;8.75;;;4.53;;
31770;SDS011;18343;50.152;8.182;2022-09-29T07:56:05;5.72;;;4.40;;
31770;SDS011;18343;50.152;8.182;2022-09-29T07:58:33;7.30;;;4.90;;
31770;SDS011;18343;50.152;8.182;2022-09-29T08:01:01;7.15;;;4.82;;
31770;SDS011;18343;50.152;8.182;2022-09-29T08:03:29;7.85;;;5.57;;
31770;SDS011;18343;50.152;8.182;2022-09-29T08:05:56;5.32;;;4.55;;
31770;SDS011;18343;50.152;8.182;2022-09-29T08:08:23;7.28;;;5.10;;
31770;SDS011;18343;50.152;8.182;2022-09-29T08:10:50;10.65;;;5.35;;
31770;SDS011;18343;50.152;8.182;2022-09-29T08:13:17;9.85;;;5.63;;
31770;SDS011;18343;50.152;8.182;2022-09-29T08:15:43;8.45;;;5.03;;
31770;SDS011;18343;50.152;8.182;2022-09-29T08:18:10;7.57;;;4.75;;
31770;SDS011;18343;50.152;8.182;2022-09-29T08:20:36;12.30;;;6.18;;
31770;SDS011;18343;50.152;8.182;2022-09-29T08:23:03;8.60;;;5.78;;
31770;SDS011;18343;50.152;8.182;2022-09-29T08:25:31;7.85;;;5.10;;
31770;SDS011;18343;50.152;8.182;2022-09-29T08:27:59;7.43;;;5.50;;
31770;SDS011;18343;50.152;8.182;2022-09-29T08:30:26;8.55;;;5.57;;
31770;SDS011;18343;50.152;8.182;2022-09-29T08:32:52;10.07;;;5.32;;
31770;SDS011;18343;50.152;8.182;2022-09-29T08:35:19;9.80;;;5.85;;
31770;SDS011;18343;50.152;8.182;2022-09-29T08:37:46;8.10;;;5.47;;
31770;SDS011;18343;50.152;8.182;2022-09-29T08:40:13;7.75;;;5.05;;
31770;SDS011;18343;50.152;8.182;2022-09-29T08:42:44;8.20;;;4.88;;
31770;SDS011;18343;50.152;8.182;2022-09-29T08:45:24;9.20;;;5.32;;
31770;SDS011;18343;50.152;8.182;2022-09-29T08:47:56;9.80;;;5.20;;
31770;SDS011;18343;50.152;8.182;2022-09-29T08:50:31;11.35;;;5.35;;
31770;SDS011;18343;50.152;8.182;2022-09-29T08:53:04;8.52;;;5.22;;
31770;SDS011;18343;50.152;8.182;2022-09-29T08:55:40;8.50;;;5.03;;
31770;SDS011;18343;50.152;8.182;2022-09-29T08:58:11;6.22;;;4.45;;
31770;SDS011;18343;50.152;8.182;2022-09-29T09:00:42;7.13;;;4.90;;
31770;SDS011;18343;50.152;8.182;2022-09-29T09:03:33;14.75;;;4.80;;
31770;SDS011;18343;50.152;8.182;2022-09-29T09:06:28;6.88;;;4.53;;
31770;SDS011;18343;50.152;8.182;2022-09-29T09:09:24;8.10;;;4.65;;
31770;SDS011;18343;50.152;8.182;2022-09-29T09:12:12;11.73;;;5.10;;
31770;SDS011;18343;50.152;8.182;2022-09-29T09:15:00;6.30;;;4.07;;
31770;SDS011;18343;50.152;8.182;2022-09-29T09:17:56;9.52;;;4.60;;
31770;SDS011;18343;50.152;8.182;2022-09-29T09:20:40;6.28;;;4.30;;
31770;SDS011;18343;50.152;8.182;2022-09-29T09:23:17;5.13;;;4.03;;
31770;SDS011;18343;50.152;8.182;2022-09-29T09:25:48;10.75;;;5.88;;
31770;SDS011;18343;50.152;8.182;2022-09-29T09:28:21;8.32;;;4.30;;
31770;SDS011;18343;50.152;8.182;2022-09-29T09:30:55;8.13;;;4.30;;
31770;SDS011;18343;50.152;8.182;2022-09-29T09:33:29;9.50;;;4.25;;
31770;SDS011;18343;50.152;8.182;2022-09-29T09:36:04;5.32;;;3.90;;
31770;SDS011;18343;50.152;8.182;2022-09-29T09:38:44;7.47;;;3.90;;
31770;SDS011;18343;50.152;8.182;2022-09-29T09:41:19;6.60;;;4.35;;
31770;SDS011;18343;50.152;8.182;2022-09-29T09:43:50;6.72;;;4.50;;
31770;SDS011;18343;50.152;8.182;2022-09-29T09:46:23;5.20;;;3.80;;
31770;SDS011;18343;50.152;8.182;2022-09-29T09:48:57;16.63;;;8.05;;
31770;SDS011;18343;50.152;8.182;2022-09-29T09:51:37;13.27;;;6.05;;
31770;SDS011;18343;50.152;8.182;2022-09-29T09:54:13;10.52;;;5.05;;
31770;SDS011;18343;50.152;8.182;2022-09-29T09:56:54;14.15;;;5.03;;
31770;SDS011;18343;50.152;8.182;2022-09-29T09:59:42;7.07;;;4.65;;
31770;SDS011;18343;50.152;8.182;2022-09-29T10:02:24;10.95;;;4.65;;
31770;SDS011;18343;50.152;8.182;2022-09-29T10:04:51;7.15;;;4.30;;
31770;SDS011;18343;50.152;8.182;2022-09-29T10:07:19;11.00;;;4.22;;
31770;SDS011;18343;50.152;8.182;2022-09-29T10:09:49;5.97;;;4.18;;
31770;SDS011;18343;50.152;8.182;2022-09-29T10:12:16;7.68;;;4.72;;
31770;SDS011;18343;50.152;8.182;2022-09-29T10:14:48;10.10;;;4.95;;
31770;SDS011;18343;50.152;8.182;2022-09-29T10:17:20;10.60;;;5.07;;
31770;SDS011;18343;50.152;8.182;2022-09-29T10:19:53;8.13;;;4.32;;
31770;SDS011;18343;50.152;8.182;2022-09-29T10:22:22;6.53;;;4.47;;
31770;SDS011;18343;50.152;8.182;2022-09-29T10:24:51;8.30;;;4.30;;
31770;SDS011;18343;50.152;8.182;2022-09-29T10:27:22;7.65;;;4.30;;
31770;SDS011;18343;50.152;8.182;2022-09-29T10:29:53;7.90;;;4.25;;
31770;SDS011;18343;50.152;8.182;2022-09-29T10:32:24;8.90;;;4.50;;
31770;SDS011;18343;50.152;8.182;2022-09-29T10:35:03;9.60;;;4.90;;
31770;SDS011;18343;50.152;8.182;2022-09-29T10:37:40;7.07;;;4.50;;
31770;SDS011;18343;50.152;8.182;2022-09-29T10:40:13;8.48;;;4.63;;
31770;SDS011;18343;50.152;8.182;2022-09-29T10:45:14;12.93;;;4.38;;
31770;SDS011;18343;50.152;8.182;2022-09-29T10:47:44;6.78;;;4.55;;
31770;SDS011;18343;50.152;8.182;2022-09-29T10:50:14;7.70;;;4.80;;
31770;SDS011;18343;50.152;8.182;2022-09-29T10:52:46;10.20;;;5.15;;
31770;SDS011;18343;50.152;8.182;2022-09-29T10:55:18;8.40;;;4.55;;
31770;SDS011;18343;50.152;8.182;2022-09-29T10:57:47;9.15;;;5.03;;
31770;SDS011;18343;50.152;8.182;2022-09-29T11:00:25;8.05;;;5.22;;
31770;SDS011;18343;50.152;8.182;2022-09-29T11:02:58;10.48;;;4.93;;
31770;SDS011;18343;50.152;8.182;2022-09-29T11:05:32;11.40;;;4.97;;
31770;SDS011;18343;50.152;8.182;2022-09-29T11:08:00;9.63;;;5.20;;
31770;SDS011;18343;50.152;8.182;2022-09-29T11:10:28;10.68;;;5.68;;
31770;SDS011;18343;50.152;8.182;2022-09-29T11:12:57;6.72;;;5.15;;
31770;SDS011;18343;50.152;8.182;2022-09-29T11:15:39;9.98;;;6.07;;
31770;SDS011;18343;50.152;8.182;2022-09-29T11:18:16;8.90;;;5.82;;
31770;SDS011;18343;50.152;8.182;2022-09-29T11:20:46;13.77;;;7.50;;
31770;SDS011;18343;50.152;8.182;2022-09-29T11:23:26;11.82;;;7.22;;
31770;SDS011;18343;50.152;8.182;2022-09-29T11:26:10;12.25;;;7.47;;
31770;SDS011;18343;50.152;8.182;2022-09-29T11:28:53;11.02;;;7.05;;
31770;SDS011;18343;50.152;8.182;2022-09-29T11:31:45;12.15;;;7.05;;
31770;SDS011;18343;50.152;8.182;2022-09-29T11:34:40;12.65;;;7.60;;
31770;SDS011;18343;50.152;8.182;2022-09-29T11:37:27;12.18;;;7.43;;
31770;SDS011;18343;50.152;8.182;2022-09-29T11:40:10;16.88;;;8.05;;
31770;SDS011;18343;50.152;8.182;2022-09-29T11:42:47;11.82;;;7.68;;
31770;SDS011;18343;50.152;8.182;2022-09-29T11:45:29;13.77;;;7.80;;
31770;SDS011;18343;50.152;8.182;2022-09-29T11:51:05;25.25;;;7.03;;
31770;SDS011;18343;50.152;8.182;2022-09-29T11:53:49;10.93;;;6.13;;
31770;SDS011;18343;50.152;8.182;2022-09-29T11:56:33;9.30;;;5.68;;
31770;SDS011;18343;50.152;8.182;2022-09-29T11:59:19;10.90;;;5.13;;
31770;SDS011;18343;50.152;8.182;2022-09-29T12:02:07;7.78;;;4.95;;
31770;SDS011;18343;50.152;8.182;2022-09-29T12:05:02;9.07;;;4.93;;
31770;SDS011;18343;50.152;8.182;2022-09-29T12:07:43;10.75;;;4.80;;
31770;SDS011;18343;50.152;8.182;2022-09-29T12:10:26;9.27;;;5.57;;
31770;SDS011;18343;50.152;8.182;2022-09-29T12:13:10;16.13;;;5.13;;
31770;SDS011;18343;50.152;8.182;2022-09-29T12:15:49;13.98;;;7.28;;
31770;SDS011;18343;50.152;8.182;2022-09-29T12:18:22;17.55;;;6.35;;
31770;SDS011;18343;50.152;8.182;2022-09-29T12:20:54;11.32;;;6.55;;
31770;SDS011;18343;50.152;8.182;2022-09-29T12:23:22;11.60;;;6.32;;
31770;SDS011;18343;50.152;8.182;2022-09-29T12:25:55;11.52;;;6.72;;
31770;SDS011;18343;50.152;8.182;2022-09-29T12:28:29;10.60;;;6.60;;
31770;SDS011;18343;50.152;8.182;2022-09-29T12:31:03;11.18;;;6.32;;
31770;SDS011;18343;50.152;8.182;2022-09-29T12:33:38;13.70;;;7.22;;
31770;SDS011;18343;50.152;8.182;2022-09-29T12:36:24;11.23;;;6.80;;
31770;SDS011;18343;50.152;8.182;2022-09-29T12:39:26;9.23;;;5.45;;
31770;SDS011;18343;50.152;8.182;2022-09-29T12:42:16;11.48;;;6.20;;
31770;SDS011;18343;50.152;8.182;2022-09-29T12:45:13;8.77;;;6.28;;
31770;SDS011;18343;50.152;8.182;2022-09-29T12:48:00;9.77;;;4.90;;
31770;SDS011;18343;50.152;8.182;2022-09-29T12:50:51;14.00;;;5.78;;
31770;SDS011;18343;50.152;8.182;2022-09-29T12:53:27;9.35;;;5.30;;
31770;SDS011;18343;50.152;8.182;2022-09-29T12:58:31;10.32;;;5.43;;
31770;SDS011;18343;50.152;8.182;2022-09-29T13:01:14;9.63;;;5.03;;
31770;SDS011;18343;50.152;8.182;2022-09-29T13:03:52;8.18;;;4.53;;
31770;SDS011;18343;50.152;8.182;2022-09-29T13:10:33;9.02;;;4.75;;
31770;SDS011;18343;50.152;8.182;2022-09-29T13:13:35;10.75;;;5.53;;
31770;SDS011;18343;50.152;8.182;2022-09-29T13:16:34;9.23;;;5.32;;
31770;SDS011;18343;50.152;8.182;2022-09-29T13:19:20;8.55;;;5.32;;
31770;SDS011;18343;50.152;8.182;2022-09-29T13:22:18;12.95;;;6.25;;
31770;SDS011;18343;50.152;8.182;2022-09-29T13:25:13;9.82;;;5.32;;
31770;SDS011;18343;50.152;8.182;2022-09-29T13:27:48;11.45;;;5.85;;
31770;SDS011;18343;50.152;8.182;2022-09-29T13:30:17;13.20;;;6.53;;
31770;SDS011;18343;50.152;8.182;2022-09-29T13:32:47;11.18;;;5.10;;
31770;SDS011;18343;50.152;8.182;2022-09-29T13:35:17;11.75;;;5.53;;
31770;SDS011;18343;50.152;8.182;2022-09-29T13:37:49;9.45;;;5.32;;
31770;SDS011;18343;50.152;8.182;2022-09-29T13:40:19;10.13;;;5.30;;
31770;SDS011;18343;50.152;8.182;2022-09-29T13:42:49;8.95;;;4.63;;
31770;SDS011;18343;50.152;8.182;2022-09-29T13:51:20;9.30;;;4.57;;
31770;SDS011;18343;50.152;8.182;2022-09-29T14:00:04;6.13;;;4.20;;
31770;SDS011;18343;50.152;8.182;2022-09-29T14:02:43;8.13;;;4.40;;
31770;SDS011;18343;50.152;8.182;2022-09-29T14:08:13;8.10;;;4.70;;
31770;SDS011;18343;50.152;8.182;2022-09-29T14:10:46;10.68;;;4.93;;
31770;SDS011;18343;50.152;8.182;2022-09-29T14:13:20;7.78;;;4.32;;
31770;SDS011;18343;50.152;8.182;2022-09-29T14:15:54;8.68;;;4.88;;
31770;SDS011;18343;50.152;8.182;2022-09-29T14:18:50;8.80;;;4.70;;
31770;SDS011;18343;50.152;8.182;2022-09-29T14:27:29;7.43;;;3.53;;
31770;SDS011;18343;50.152;8.182;2022-09-29T15:22:50;4.93;;;3.45;;
31770;SDS011;18343;50.152;8.182;2022-09-29T15:25:38;8.60;;;3.30;;
31770;SDS011;18343;50.152;8.182;2022-09-29T15:28:09;8.52;;;3.63;;
31770;SDS011;18343;50.152;8.182;2022-09-29T15:30:41;7.25;;;4.20;;
31770;SDS011;18343;50.152;8.182;2022-09-29T15:33:15;7.85;;;3.92;;
31770;SDS011;18343;50.152;8.182;2022-09-29T15:35:47;10.93;;;4.63;;
31770;SDS011;18343;50.152;8.182;2022-09-29T15:38:29;8.23;;;4.78;;
31770;SDS011;18343;50.152;8.182;2022-09-29T15:41:04;11.70;;;4.72;;
31770;SDS011;18343;50.152;8.182;2022-09-29T15:43:43;11.63;;;4.63;;
31770;SDS011;18343;50.152;8.182;2022-09-29T15:46:20;9.13;;;4.70;;
31770;SDS011;18343;50.152;8.182;2022-09-29T15:49:05;6.35;;;4.18;;
31770;SDS011;18343;50.152;8.182;2022-09-29T15:51:39;8.05;;;3.70;;
31770;SDS011;18343;50.152;8.182;2022-09-29T15:54:10;9.48;;;3.95;;
31770;SDS011;18343;50.152;8.182;2022-09-29T15:56:39;8.23;;;4.20;;
31770;SDS011;18343;50.152;8.182;2022-09-29T15:59:55;7.63;;;3.88;;
31770;SDS011;18343;50.152;8.182;2022-09-29T16:02:25;11.75;;;3.83;;
31770;SDS011;18343;50.152;8.182;2022-09-29T16:04:55;4.32;;;2.90;;
31770;SDS011;18343;50.152;8.182;2022-09-29T16:07:26;6.20;;;3.45;;
31770;SDS011;18343;50.152;8.182;2022-09-29T16:10:02;5.63;;;3.53;;
31770;SDS011;18343;50.152;8.182;2022-09-29T16:12:34;8.85;;;3.05;;
31770;SDS011;18343;50.152;8.182;2022-09-29T16:15:05;8.13;;;4.78;;
31770;SDS011;18343;50.152;8.182;2022-09-29T16:17:41;10.95;;;4.10;;
31770;SDS011;18343;50.152;8.182;2022-09-29T16:20:10;6.82;;;3.92;;
31770;SDS011;18343;50.152;8.182;2022-09-29T16:22:43;7.90;;;3.72;;
31770;SDS011;18343;50.152;8.182;2022-09-29T16:25:21;9.50;;;4.53;;
31770;SDS011;18343;50.152;8.182;2022-09-29T16:27:52;9.60;;;4.68;;
31770;SDS011;18343;50.152;8.182;2022-09-29T16:30:29;7.88;;;5.13;;
31770;SDS011;18343;50.152;8.182;2022-09-29T16:33:05;10.18;;;5.22;;
31770;SDS011;18343;50.152;8.182;2022-09-29T16:35:47;12.65;;;5.72;;
31770;SDS011;18343;50.152;8.182;2022-09-29T16:38:33;10.50;;;6.47;;
31770;SDS011;18343;50.152;8.182;2022-09-29T16:41:08;20.45;;;8.68;;
31770;SDS011;18343;50.152;8.182;2022-09-29T16:43:44;18.13;;;10.00;;
31770;SDS011;18343;50.152;8.182;2022-09-29T16:46:13;14.27;;;8.20;;
31770;SDS011;18343;50.152;8.182;2022-09-29T16:48:45;13.95;;;8.73;;